wcyb.com alexa rank chart, wcyb.com alexa rank daily changes

wcyb.com alexa rank chart, wcyb.com alexa rank daily changes

wcyb.com
Actual rank:
137 438

RANK HISTORY

Date Rank Diff
2017/10/14 137 438 -775
2017/10/13 138 213 -5 014
2017/10/12 143 227 -3 581
2017/10/11 146 808 +9 755
2017/10/10 137 053 +7 590
2017/10/09 129 463 +2 728
2017/10/08 126 735 +3 131
2017/10/07 123 604 +4 179
2017/10/06 119 425 -4 526
2017/10/05 123 951 -1 244
2017/10/04 125 195 +1 796
2017/10/03 123 399 +633
2017/10/02 122 766 +2 913
2017/10/01 119 853 -2 912
2017/09/30 122 765 +1 277
2017/09/29 121 488 +2 328
2017/09/28 119 160 +11 856
2017/09/27 107 304 +24 879
2017/09/26 82 425 -397
2017/09/25 82 822 -1 233
2017/09/24 84 055 -615
2017/09/23 84 670 -907
2017/09/22 85 577 -843
2017/09/20 86 420 +189
2017/09/19 86 231 +135
2017/09/18 86 096 +353
2017/09/17 85 743 +583
2017/09/16 85 160 -956
2017/09/15 86 116 +160
2017/09/14 85 956 +535
2017/09/13 85 421 +870
2017/09/12 84 551 +15
2017/09/11 84 536 -2 639
2017/09/10 87 175 -2 818
2017/09/09 89 993 -640
2017/09/08 90 633 -2 196
2017/09/07 92 829 -2 588
2017/09/06 95 417 +1 204
2017/09/05 94 213 +860
2017/09/04 93 353 -1 574
2017/09/03 94 927 -673
2017/09/02 95 600 -1 577
2017/09/01 97 177 -187
2017/08/31 97 364 +602
2017/08/30 96 762 -438
2017/08/29 97 200 -2 761
2017/08/28 99 961 -8 164
2017/08/27 108 125 -50 991
2017/08/26 159 116 +6 504
2017/08/25 152 612 +504
2017/08/24 152 108 -1 487
2017/08/23 153 595 -861
2017/08/22 154 456 -749
2017/08/21 155 205 +395
2017/08/20 154 810 -799
2017/08/19 155 609 +122
2017/08/18 155 487 -2 922
2017/08/17 158 409 -437
2017/08/16 158 846

WIDGET FOR YOUR SITE

DOMAINS WITH THE NEAREST RANK

Domain Rank
porezna-uprava.hr 137 433
ecoustics.com 137 434
trustmark.com 137 435
starfield.co.kr 137 436
opensubtitles.pw 137 437
wcyb.com 137 438
retrosexsymbols.com 137 439
audiokinetic.com 137 440
crashlytics.com 137 441
windwaker.net 137 442
jjc.edu 137 443

DOMAINS WITH THE NEAREST RANK BY TLD .com

Domain Rank
gineiden-anime.com 137 426
heraldsun.com 137 431
hiapphere.com 137 432
ecoustics.com 137 434
trustmark.com 137 435
wcyb.com 137 438
retrosexsymbols.com 137 439
audiokinetic.com 137 440
crashlytics.com 137 441
snowbrains.com 137 445
zone-femme.com 137 446